Time;durP1;ratioP1;P1;durP2;ratioP2;P2;SDS_P1;SDS_P2;PMS_P1;PMS_P2;Temp;Humidity;BMP_temperature;BMP_pressure;BME280_temperature;BME280_humidity;BME280_pressure;Samples;Min_cycle;Max_cycle;Signal;HPM_P1;HPM_P2
2022/08/25 00:01:34;;;;;;;7.60;6.10;;;21.20;99.90;;;;;;5010895;28;20478;-67
2022/08/25 00:04:03;;;;;;;5.83;5.23;;;21.20;99.90;;;;;;5010915;28;20404;-67
2022/08/25 00:06:29;;;;;;;6.47;5.87;;;21.10;99.90;;;;;;5010817;28;20431;-67
2022/08/25 00:08:58;;;;;;;9.53;5.23;;;21.10;99.90;;;;;;5011049;28;20505;-67
2022/08/25 00:11:25;;;;;;;6.30;5.47;;;21.10;99.90;;;;;;5011039;28;20478;-67
2022/08/25 00:13:55;;;;;;;6.03;5.43;;;21.10;99.90;;;;;;5010746;28;20797;-66
2022/08/25 00:16:22;;;;;;;8.87;6.03;;;21.00;99.90;;;;;;5011002;28;20534;-66
2022/08/25 00:18:51;;;;;;;9.07;5.43;;;21.10;1.00;;;;;;5010720;28;20506;-66
2022/08/25 00:21:22;;;;;;;7.20;5.50;;;21.00;1.00;;;;;;5010747;28;20419;-66
2022/08/25 00:23:48;;;;;;;7.83;6.40;;;21.00;1.00;;;;;;5010839;28;20481;-66
2022/08/25 00:26:15;;;;;;;7.93;5.40;;;21.00;1.00;;;;;;5012722;28;20418;-67
2022/08/25 00:28:42;;;;;;;12.80;7.37;;;21.10;99.90;;;;;;5014153;28;20414;-66
2022/08/25 00:31:13;;;;;;;6.80;5.83;;;21.10;99.90;;;;;;5014384;28;20914;-66
2022/08/25 00:33:39;;;;;;;7.37;5.87;;;21.00;1.00;;;;;;5014333;28;20437;-66
2022/08/25 00:36:05;;;;;;;11.03;6.80;;;20.90;1.00;;;;;;5014238;28;20477;-67
2022/08/25 00:38:31;;;;;;;6.13;5.53;;;20.90;1.00;;;;;;5014061;28;20407;-66
2022/08/25 00:41:06;;;;;;;7.90;6.47;;;20.90;1.00;;;;;;5014403;28;20195;-65
2022/08/25 00:43:40;;;;;;;8.00;5.57;;;20.90;1.00;;;;;;5014219;28;20195;-66
2022/08/25 00:46:13;;;;;;;15.90;6.60;;;20.90;1.00;;;;;;5014334;28;20407;-66
2022/08/25 00:48:42;;;;;;;6.93;6.33;;;20.80;1.00;;;;;;5014061;28;20412;-66
2022/08/25 00:51:10;;;;;;;6.40;5.80;;;20.90;1.00;;;;;;5014174;28;21210;-66
2022/08/25 00:53:36;;;;;;;7.97;6.30;;;20.90;1.00;;;;;;5013973;28;20523;-66
2022/08/25 00:56:03;;;;;;;7.53;6.73;;;20.80;1.00;;;;;;5014025;28;20835;-66
2022/08/25 00:58:31;;;;;;;11.20;6.23;;;20.80;1.00;;;;;;5013706;28;20415;-66
2022/08/25 01:00:57;;;;;;;7.30;6.37;;;20.90;1.00;;;;;;5013847;28;20469;-66
2022/08/25 01:03:26;;;;;;;8.53;7.00;;;20.90;1.00;;;;;;5013624;28;20427;-66
2022/08/25 01:05:53;;;;;;;7.10;5.73;;;20.90;1.00;;;;;;5013666;28;20415;-66
2022/08/25 01:08:26;;;;;;;8.50;6.20;;;20.80;1.00;;;;;;5013579;28;20399;-66
2022/08/25 01:10:52;;;;;;;8.13;7.33;;;20.80;1.00;;;;;;5013798;28;20396;-66
2022/08/25 01:13:25;;;;;;;30.47;9.13;;;20.80;1.00;;;;;;5013599;28;20565;-66
2022/08/25 01:15:54;;;;;;;10.53;7.10;;;20.80;1.00;;;;;;5013543;28;20494;-66
2022/08/25 01:18:21;;;;;;;7.80;6.00;;;20.80;1.00;;;;;;5013269;28;20907;-66
2022/08/25 01:20:55;;;;;;;7.70;6.77;;;20.80;1.00;;;;;;5014271;28;20557;-66
2022/08/25 01:23:22;;;;;;;7.43;6.67;;;20.70;1.00;;;;;;5014968;28;20496;-66
2022/08/25 01:25:58;;;;;;;10.10;6.80;;;20.70;1.00;;;;;;5014398;28;20403;-66
2022/08/25 01:28:24;;;;;;;7.30;6.60;;;20.60;90.20;;;;;;5013007;28;20954;-66
2022/08/25 01:30:51;;;;;;;7.10;6.50;;;20.60;99.90;;;;;;5013497;28;20403;-66
2022/08/25 01:33:17;;;;;;;10.80;7.37;;;20.60;99.90;;;;;;5013236;28;20192;-66
2022/08/25 01:35:43;;;;;;;7.80;7.00;;;20.60;48.90;;;;;;5013023;28;20419;-66
2022/08/25 01:38:09;;;;;;;10.17;7.20;;;20.60;99.90;;;;;;5012758;28;20447;-65
2022/08/25 01:40:38;;;;;;;12.67;7.87;;;20.60;99.90;;;;;;5012986;28;20491;-65
2022/08/25 01:43:10;;;;;;;7.97;7.17;;;20.60;99.90;;;;;;5013545;28;20423;-66
2022/08/25 01:45:38;;;;;;;10.10;7.90;;;20.60;99.90;;;;;;5012869;28;20463;-66
2022/08/25 01:48:07;;;;;;;9.50;7.17;;;20.60;99.90;;;;;;5012490;28;20450;-66
2022/08/25 01:50:33;;;;;;;8.37;7.07;;;20.60;99.90;;;;;;5012992;28;20402;-66
2022/08/25 01:53:02;;;;;;;8.47;7.67;;;20.50;99.90;;;;;;5013232;28;20451;-67
2022/08/25 01:55:29;;;;;;;7.83;7.13;;;20.40;1.00;;;;;;5012635;28;20433;-67
2022/08/25 01:57:57;;;;;;;9.50;8.60;;;20.40;1.00;;;;;;5012298;28;20412;-67
2022/08/25 02:00:23;;;;;;;9.57;8.57;;;20.30;1.00;;;;;;5012334;28;20481;-67
2022/08/25 02:02:49;;;;;;;10.37;9.30;;;20.30;1.00;;;;;;5012506;28;20423;-67
2022/08/25 02:05:15;;;;;;;9.70;8.43;;;20.30;26.10;;;;;;5012550;28;20422;-67
2022/08/25 02:07:42;;;;;;;10.40;8.73;;;20.30;1.00;;;;;;5012215;28;20263;-67
2022/08/25 02:10:11;;;;;;;9.47;8.50;;;20.30;1.00;;;;;;5012076;28;20415;-67
2022/08/25 02:12:37;;;;;;;9.80;8.83;;;20.20;99.90;;;;;;5012219;28;20713;-67
2022/08/25 02:15:05;;;;;;;10.97;9.87;;;20.20;99.90;;;;;;5012384;28;20416;-67
2022/08/25 02:17:30;;;;;;;11.40;9.70;;;20.10;1.00;;;;;;5012101;28;20414;-67
2022/08/25 02:19:56;;;;;;;10.10;9.10;;;20.00;1.00;;;;;;5011995;28;20495;-67
2022/08/25 02:22:22;;;;;;;9.30;8.20;;;20.10;1.00;;;;;;5012080;28;20195;-67
2022/08/25 02:24:48;;;;;;;10.20;9.20;;;19.90;99.90;;;;;;5010905;28;20168;-66
2022/08/25 02:27:15;;;;;;;12.60;10.23;;;19.80;99.90;;;;;;5012102;28;20407;-67
2022/08/25 02:29:41;;;;;;;12.17;10.60;;;19.80;99.90;;;;;;5011967;28;20748;-66
2022/08/25 02:32:07;;;;;;;11.63;9.70;;;19.70;1.00;;;;;;5011937;28;20485;-67
2022/08/25 02:34:34;;;;;;;10.53;9.53;;;19.70;1.00;;;;;;5011904;28;20824;-67
2022/08/25 02:37:00;;;;;;;11.50;10.30;;;19.70;1.00;;;;;;5011888;28;20415;-67
2022/08/25 02:39:26;;;;;;;20.77;10.03;;;19.80;99.90;;;;;;5011767;28;20459;-67
2022/08/25 02:41:53;;;;;;;11.77;9.90;;;19.90;99.90;;;;;;5012065;28;20510;-66
2022/08/25 02:44:18;;;;;;;12.13;10.93;;;20.00;99.90;;;;;;5012282;28;20799;-67
2022/08/25 02:46:44;;;;;;;10.90;9.90;;;20.00;53.10;;;;;;5012034;28;20596;-67
2022/08/25 02:49:10;;;;;;;15.07;11.03;;;20.00;2.70;;;;;;5010900;28;20176;-67
2022/08/25 02:51:35;;;;;;;12.60;10.90;;;20.00;99.90;;;;;;5012848;28;20179;-67
2022/08/25 02:54:03;;;;;;;14.00;10.40;;;19.90;99.90;;;;;;5013708;28;20600;-67
2022/08/25 02:56:31;;;;;;;11.40;10.27;;;20.00;99.90;;;;;;5013816;28;20177;-67
2022/08/25 02:58:57;;;;;;;12.70;10.83;;;20.00;99.90;;;;;;5011420;28;20788;-67
2022/08/25 03:01:23;;;;;;;12.13;10.43;;;20.00;99.90;;;;;;5011470;28;20414;-67
2022/08/25 03:03:50;;;;;;;18.53;11.30;;;20.10;1.00;;;;;;5011674;28;20411;-67
2022/08/25 03:06:19;;;;;;;13.53;10.30;;;20.10;1.00;;;;;;5011888;28;20172;-67
2022/08/25 03:08:45;;;;;;;11.83;10.63;;;20.00;7.80;;;;;;5011155;28;20498;-66
2022/08/25 03:11:11;;;;;;;12.93;11.60;;;20.00;99.90;;;;;;5011585;28;20845;-67
2022/08/25 03:13:37;;;;;;;12.90;11.63;;;20.00;99.90;;;;;;5011244;28;20427;-67
2022/08/25 03:16:06;;;;;;;13.43;12.10;;;20.00;99.90;;;;;;5011519;28;20176;-67
2022/08/25 03:18:31;;;;;;;13.70;11.53;;;20.00;99.90;;;;;;5010829;28;20800;-67
2022/08/25 03:20:58;;;;;;;13.33;11.97;;;19.80;1.00;;;;;;5011306;28;20407;-67
2022/08/25 03:23:24;;;;;;;14.57;13.10;;;19.80;1.00;;;;;;5011224;28;20196;-67
2022/08/25 03:28:34;;;;;;;13.20;12.00;;;19.70;1.00;;;;;;5011031;28;20187;-67
2022/08/25 03:31:00;;;;;;;14.87;11.33;;;19.60;99.90;;;;;;5011194;28;20407;-67
2022/08/25 03:33:27;;;;;;;17.07;12.67;;;19.70;50.30;;;;;;5011255;28;20461;-68
2022/08/25 03:35:54;;;;;;;13.80;12.30;;;19.80;1.00;;;;;;5011158;28;20415;-67
2022/08/25 03:38:20;;;;;;;13.90;12.47;;;19.80;1.00;;;;;;5010824;28;20777;-68
2022/08/25 03:40:46;;;;;;;18.73;13.57;;;19.70;17.20;;;;;;5011131;28;20430;-68
2022/08/25 03:43:12;;;;;;;13.57;12.20;;;19.70;52.20;;;;;;5010908;28;20415;-67
2022/08/25 03:45:46;;;;;;;13.40;12.00;;;19.70;47.00;;;;;;5011327;28;20176;-67
2022/08/25 03:48:13;;;;;;;13.00;11.70;;;19.70;1.00;;;;;;5010842;28;20410;-67
2022/08/25 03:50:49;;;;;;;14.70;13.20;;;19.70;99.90;;;;;;5010864;28;20486;-67
2022/08/25 03:53:15;;;;;;;24.20;13.80;;;19.70;99.90;;;;;;5010551;28;20461;-67
2022/08/25 03:55:41;;;;;;;18.33;13.23;;;19.80;92.20;;;;;;5011007;28;20416;-67
2022/08/25 03:58:07;;;;;;;16.60;13.10;;;19.90;1.00;;;;;;5010459;28;20274;-66
2022/08/25 04:00:33;;;;;;;14.03;12.50;;;19.80;1.00;;;;;;5011580;28;20564;-67
2022/08/25 04:02:58;;;;;;;19.30;13.17;;;19.80;33.10;;;;;;5014705;28;20203;-66
2022/08/25 04:05:24;;;;;;;20.50;13.30;;;19.80;41.00;;;;;;5014766;28;20172;-66
2022/08/25 04:07:50;;;;;;;16.83;12.17;;;19.80;9.70;;;;;;5014561;28;20538;-66
2022/08/25 04:10:15;;;;;;;24.53;13.83;;;19.80;1.00;;;;;;5014525;28;20589;-67
2022/08/25 04:12:41;;;;;;;17.57;12.97;;;19.80;1.00;;;;;;5014472;28;20242;-67
2022/08/25 04:15:08;;;;;;;22.13;11.73;;;19.80;1.00;;;;;;5014507;28;20184;-67
2022/08/25 04:17:38;;;;;;;21.70;13.20;;;19.80;1.00;;;;;;5014375;28;20597;-67
2022/08/25 04:20:07;;;;;;;18.03;13.60;;;19.80;1.00;;;;;;5014270;28;20509;-67
2022/08/25 04:22:32;;;;;;;20.83;12.70;;;19.80;1.00;;;;;;5014326;28;20435;-66
2022/08/25 04:24:58;;;;;;;24.03;13.00;;;19.70;1.00;;;;;;5014475;28;20464;-68
2022/08/25 04:27:24;;;;;;;17.37;12.63;;;19.70;90.50;;;;;;5014078;28;20179;-66
2022/08/25 04:29:50;;;;;;;21.47;13.80;;;19.60;93.30;;;;;;5014288;28;20415;-67
2022/08/25 04:32:16;;;;;;;20.13;12.93;;;19.60;99.90;;;;;;5014149;28;20279;-67
2022/08/25 04:34:42;;;;;;;17.97;13.30;;;19.60;99.90;;;;;;5014247;28;20546;-67
2022/08/25 04:37:09;;;;;;;16.10;12.80;;;19.60;99.90;;;;;;5014078;28;20184;-67
2022/08/25 04:39:34;;;;;;;18.03;14.50;;;19.60;99.90;;;;;;5014121;28;20459;-67
2022/08/25 04:42:01;;;;;;;15.10;13.60;;;19.60;99.90;;;;;;5014083;28;20431;-67
2022/08/25 04:44:27;;;;;;;14.83;12.57;;;19.70;50.70;;;;;;5014207;28;20571;-67
2022/08/25 04:46:53;;;;;;;15.10;13.50;;;19.70;96.30;;;;;;5014017;28;20407;-67
2022/08/25 04:49:19;;;;;;;20.97;14.90;;;19.60;99.90;;;;;;5013948;28;20422;-67
2022/08/25 04:51:45;;;;;;;30.77;13.70;;;19.60;99.90;;;;;;5013924;28;20208;-67
2022/08/25 04:54:20;;;;;;;34.97;15.73;;;19.70;24.00;;;;;;5014084;28;20579;-67
2022/08/25 04:56:47;;;;;;;21.30;13.30;;;19.80;41.20;;;;;;5013780;28;20426;-67
2022/08/25 04:59:15;;;;;;;25.40;12.80;;;19.80;1.00;;;;;;5013355;28;20797;-67
2022/08/25 05:01:42;;;;;;;26.27;14.50;;;19.80;1.00;;;;;;5013927;28;20407;-67
2022/08/25 05:04:10;;;;;;;56.47;16.47;;;19.80;1.00;;;;;;5013711;28;20403;-67
2022/08/25 05:06:36;;;;;;;30.33;13.90;;;19.90;1.00;;;;;;5012541;28;20447;-67
2022/08/25 05:09:03;;;;;;;19.40;14.50;;;19.90;1.00;;;;;;5013594;28;20411;-67
2022/08/25 05:11:29;;;;;;;16.87;13.43;;;20.00;1.00;;;;;;5013134;28;20411;-67
2022/08/25 05:13:57;;;;;;;16.60;12.90;;;20.00;1.00;;;;;;5013698;28;20421;-67
2022/08/25 05:16:24;;;;;;;15.27;13.67;;;20.00;1.00;;;;;;5013598;28;20407;-67
2022/08/25 05:18:50;;;;;;;25.23;14.17;;;20.10;1.00;;;;;;5013233;28;20553;-67
2022/08/25 05:21:20;;;;;;;19.07;14.63;;;20.10;1.00;;;;;;5013341;28;20406;-67
2022/08/25 05:23:46;;;;;;;15.20;13.73;;;20.30;99.90;;;;;;5013517;28;20430;-67
2022/08/25 05:26:19;;;;;;;15.47;13.90;;;20.30;99.90;;;;;;5013384;28;20411;-67
2022/08/25 05:28:46;;;;;;;14.83;13.23;;;20.50;99.90;;;;;;5012908;28;20465;-67
2022/08/25 05:31:13;;;;;;;15.50;13.90;;;21.80;1.00;;;;;;5013226;28;20404;-67
2022/08/25 05:33:40;;;;;;;13.77;12.37;;;22.90;99.90;;;;;;5012900;28;20442;-66
2022/08/25 05:36:08;;;;;;;23.87;14.23;;;23.90;1.00;;;;;;5013098;28;20418;-67
2022/08/25 05:38:35;;;;;;;16.67;12.87;;;24.70;1.00;;;;;;5012745;28;20441;-67
2022/08/25 05:41:17;;;;;;;15.43;12.40;;;25.10;1.00;;;;;;5013193;28;20438;-67
2022/08/25 05:43:45;;;;;;;13.50;12.10;;;25.10;99.90;;;;;;5012978;28;20431;-67
2022/08/25 05:46:12;;;;;;;19.47;14.17;;;24.50;99.90;;;;;;5012954;28;20419;-67
2022/08/25 05:48:38;;;;;;;14.00;11.83;;;24.10;1.00;;;;;;5012613;28;20458;-67
2022/08/25 05:51:06;;;;;;;18.20;12.60;;;23.80;1.00;;;;;;5012892;28;20963;-67
2022/08/25 05:53:33;;;;;;;15.27;13.13;;;23.40;1.00;;;;;;5012701;28;20971;-67
2022/08/25 05:55:59;;;;;;;15.10;13.03;;;23.40;1.00;;;;;;5011592;28;20940;-67
2022/08/25 05:58:27;;;;;;;17.77;13.77;;;23.30;1.00;;;;;;5012237;28;20442;-67
2022/08/25 06:00:53;;;;;;;13.77;12.40;;;23.50;1.00;;;;;;5012578;28;20180;-67
2022/08/25 06:03:19;;;;;;;13.30;11.90;;;23.30;1.00;;;;;;5012417;28;20408;-67
2022/08/25 06:05:45;;;;;;;14.00;12.53;;;23.30;1.00;;;;;;5012707;28;20933;-67
2022/08/25 06:08:11;;;;;;;13.80;12.40;;;23.40;1.00;;;;;;5012210;28;20172;-67
2022/08/25 06:10:37;;;;;;;16.63;13.13;;;23.70;1.00;;;;;;5012235;28;20488;-67
2022/08/25 06:13:03;;;;;;;14.63;13.03;;;23.80;1.00;;;;;;5012133;28;20203;-67
2022/08/25 06:15:29;;;;;;;14.50;13.00;;;23.80;1.00;;;;;;5010294;28;20896;-67
2022/08/25 06:17:57;;;;;;;16.10;13.43;;;23.80;1.00;;;;;;5010224;28;20580;-67
2022/08/25 06:20:26;;;;;;;14.50;13.00;;;23.80;1.00;;;;;;5008610;28;20458;-67
2022/08/25 06:22:52;;;;;;;19.00;13.97;;;24.00;1.00;;;;;;5009503;28;20454;-67
2022/08/25 06:25:20;;;;;;;14.53;13.07;;;24.30;1.00;;;;;;5010536;28;20922;-67
2022/08/25 06:27:46;;;;;;;16.20;12.37;;;24.20;1.00;;;;;;5010140;28;20411;-66
2022/08/25 06:30:15;;;;;;;14.50;13.00;;;24.00;1.00;;;;;;5010144;28;20415;-65
2022/08/25 06:32:42;;;;;;;15.00;12.77;;;24.00;1.00;;;;;;5010058;28;20226;-66
2022/08/25 06:35:11;;;;;;;12.63;11.53;;;23.80;1.00;;;;;;5010299;28;20861;-66
2022/08/25 06:37:37;;;;;;;15.60;12.70;;;24.10;1.00;;;;;;5009894;28;20842;-66
2022/08/25 06:40:05;;;;;;;15.00;13.50;;;23.80;1.00;;;;;;5010076;28;20538;-67
2022/08/25 06:42:31;;;;;;;14.20;12.70;;;23.80;1.00;;;;;;5009887;28;20779;-66
2022/08/25 06:44:57;;;;;;;14.17;12.80;;;22.90;1.00;;;;;;5008871;28;20407;-67
2022/08/25 06:47:23;;;;;;;13.00;11.80;;;22.90;1.00;;;;;;5010041;28;20246;-65
2022/08/25 06:49:49;;;;;;;14.23;12.77;;;23.30;1.00;;;;;;5008885;28;20180;-66
2022/08/25 06:52:15;;;;;;;14.70;13.20;;;23.30;1.00;;;;;;5009859;28;20212;-65
2022/08/25 06:54:41;;;;;;;16.30;12.20;;;23.40;1.00;;;;;;5009388;28;20180;-65
2022/08/25 06:57:07;;;;;;;14.07;12.67;;;23.30;1.00;;;;;;5009374;28;20419;-67
2022/08/25 06:59:35;;;;;;;13.63;12.23;;;23.40;1.00;;;;;;5009066;28;20463;-66
2022/08/25 07:02:02;;;;;;;14.67;11.53;;;23.40;1.00;;;;;;5009504;28;20501;-66
2022/08/25 07:04:28;;;;;;;14.20;12.00;;;23.50;1.00;;;;;;5009630;28;20833;-67
2022/08/25 07:06:54;;;;;;;14.07;12.57;;;23.80;1.00;;;;;;5009457;28;20411;-66
2022/08/25 07:09:20;;;;;;;12.63;10.70;;;23.00;1.00;;;;;;5009177;28;20180;-66
2022/08/25 07:11:46;;;;;;;13.87;12.43;;;23.80;1.00;;;;;;5009102;28;20202;-67
2022/08/25 07:14:15;;;;;;;18.03;12.43;;;23.80;1.00;;;;;;5009445;28;20176;-66
2022/08/25 07:16:41;;;;;;;13.07;11.53;;;24.00;1.00;;;;;;5007754;28;20176;-66
2022/08/25 07:19:07;;;;;;;14.20;12.80;;;23.60;1.00;;;;;;5009624;28;20985;-65
2022/08/25 07:21:35;;;;;;;13.93;12.47;;;23.00;1.00;;;;;;5011818;28;20461;-67
2022/08/25 07:24:09;;;;;;;13.73;11.90;;;23.40;1.00;;;;;;5011463;28;20411;-67
2022/08/25 07:26:36;;;;;;;12.77;11.57;;;23.60;1.00;;;;;;5011281;28;20967;-67
2022/08/25 07:29:10;;;;;;;14.10;12.67;;;24.00;1.00;;;;;;5011288;28;20451;-68
2022/08/25 07:31:36;;;;;;;19.63;11.77;;;23.70;1.00;;;;;;5011643;28;20478;-67
2022/08/25 07:36:46;;;;;;;14.73;12.77;;;24.00;1.00;;;;;;5021344;28;20487;-66
2022/08/25 07:39:11;;;;;;;15.20;11.30;;;23.70;1.00;;;;;;5015656;28;20443;-67
2022/08/25 07:41:39;;;;;;;13.03;11.67;;;23.90;1.00;;;;;;5010947;28;20187;-67
2022/08/25 07:44:06;;;;;;;13.57;12.17;;;24.00;1.00;;;;;;5011000;28;20169;-66
2022/08/25 07:46:32;;;;;;;15.63;13.17;;;24.20;1.00;;;;;;5013984;28;20414;-66
2022/08/25 07:48:58;;;;;;;14.03;12.63;;;24.10;1.00;;;;;;5011024;28;20495;-66
2022/08/25 07:51:24;;;;;;;12.17;10.97;;;24.00;1.00;;;;;;5011414;28;20900;-68
2022/08/25 07:53:50;;;;;;;19.23;11.17;;;24.00;1.00;;;;;;5010481;28;20230;-68
2022/08/25 07:56:17;;;;;;;13.00;11.70;;;24.60;1.00;;;;;;5010239;28;20173;-68
2022/08/25 07:58:44;;;;;;;15.00;13.20;;;24.80;1.00;;;;;;5009941;28;20187;-67
2022/08/25 08:01:20;;;;;;;12.77;11.20;;;24.40;1.00;;;;;;5009360;28;20415;-69
2022/08/25 08:03:46;;;;;;;14.63;12.20;;;24.70;1.00;;;;;;5009407;28;20493;-66
2022/08/25 08:06:14;;;;;;;19.73;11.13;;;24.40;1.00;;;;;;5008952;28;20411;-67
2022/08/25 08:08:43;;;;;;;11.73;10.63;;;24.80;99.90;;;;;;5008382;28;20415;-68
2022/08/25 08:11:26;;;;;;;12.40;11.20;;;24.80;99.90;;;;;;5008639;28;20426;-67
2022/08/25 08:13:54;;;;;;;29.90;12.87;;;24.80;99.90;;;;;;5008860;28;20435;-68
2022/08/25 08:16:21;;;;;;;23.50;11.90;;;25.30;99.90;;;;;;5008494;28;20442;-67
2022/08/25 08:18:47;;;;;;;15.77;11.00;;;25.30;99.90;;;;;;5008208;28;20498;-68
2022/08/25 08:21:17;;;;;;;11.60;10.43;;;25.00;99.90;;;;;;5008982;28;20461;-67
2022/08/25 08:23:43;;;;;;;13.80;12.00;;;24.60;99.90;;;;;;5008471;28;20442;-68
2022/08/25 08:26:09;;;;;;;16.13;14.13;;;24.70;99.90;;;;;;5008231;28;20411;-68
2022/08/25 08:28:35;;;;;;;12.13;10.83;;;24.40;99.90;;;;;;5007975;28;20752;-68
2022/08/25 08:31:01;;;;;;;12.47;10.50;;;24.90;99.90;;;;;;5008104;28;20168;-68
2022/08/25 08:33:27;;;;;;;11.13;9.80;;;25.00;99.90;;;;;;5007682;28;20510;-68
2022/08/25 08:36:00;;;;;;;11.30;10.10;;;24.40;99.90;;;;;;5008590;28;20181;-67
2022/08/25 08:38:27;;;;;;;11.77;10.53;;;23.70;99.90;;;;;;5008099;28;20772;-66
2022/08/25 08:44:32;;;;;;;10.63;9.63;;;23.70;1.00;;;;;;5008552;28;20900;-68
2022/08/25 08:47:02;;;;;;;10.73;9.63;;;24.00;1.00;;;;;;5009632;28;20414;-66
2022/08/25 08:49:48;;;;;;;12.63;8.93;;;24.10;1.00;;;;;;5011887;28;20414;-68
2022/08/25 08:52:17;;;;;;;10.70;8.73;;;25.00;1.00;;;;;;5011488;28;20450;-67
2022/08/25 08:54:47;;;;;;;11.77;10.10;;;25.30;99.90;;;;;;5011512;28;20669;-68
2022/08/25 08:57:16;;;;;;;11.03;8.50;;;24.90;99.90;;;;;;5011712;28;20772;-68
2022/08/25 08:59:58;;;;;;;11.23;9.47;;;25.00;99.90;;;;;;5011450;28;20458;-68
2022/08/25 09:02:33;;;;;;;11.97;8.10;;;25.10;99.90;;;;;;5011480;28;20800;-67
2022/08/25 09:05:09;;;;;;;12.23;8.30;;;25.10;99.90;;;;;;5011603;28;20414;-67
2022/08/25 09:07:42;;;;;;;22.10;8.33;;;24.80;99.90;;;;;;5011502;28;20414;-67
2022/08/25 09:10:09;;;;;;;11.70;8.57;;;24.90;99.90;;;;;;5011284;28;20816;-66
2022/08/25 09:13:27;;;;;;;12.90;8.57;;;25.20;99.90;;;;;;5011134;28;20431;-66
2022/08/25 09:19:16;;;;;;;8.67;7.77;;;25.40;99.90;;;;;;5013125;28;20454;-67
2022/08/25 09:21:52;;;;;;;11.07;8.20;;;25.10;99.90;;;;;;5013244;28;20415;-67
2022/08/25 09:24:45;;;;;;;8.93;8.03;;;25.00;99.90;;;;;;5013137;28;20434;-68
2022/08/25 09:27:23;;;;;;;11.13;8.80;;;25.20;99.90;;;;;;5012880;28;20498;-68
2022/08/25 09:30:22;;;;;;;9.70;8.83;;;25.40;99.90;;;;;;5013044;28;20403;-68
2022/08/25 09:33:00;;;;;;;8.43;7.63;;;25.40;99.90;;;;;;5010842;28;20521;-68
2022/08/25 09:35:31;;;;;;;10.33;7.80;;;25.30;99.90;;;;;;5013277;28;20399;-68
2022/08/25 09:38:07;;;;;;;9.80;8.80;;;25.40;99.90;;;;;;5012885;28;20399;-67
2022/08/25 09:40:46;;;;;;;14.40;9.17;;;25.20;99.90;;;;;;5012990;28;20463;-67
2022/08/25 09:43:22;;;;;;;8.63;7.80;;;25.10;99.90;;;;;;5013043;28;20842;-67
2022/08/25 09:45:59;;;;;;;9.57;8.60;;;25.40;99.90;;;;;;5013001;28;20469;-68
2022/08/25 09:48:26;;;;;;;8.83;7.90;;;25.50;99.90;;;;;;5012527;28;20478;-67
2022/08/25 09:51:01;;;;;;;11.37;8.90;;;25.80;99.90;;;;;;5011798;28;20414;-68
2022/08/25 09:53:28;;;;;;;8.73;7.80;;;25.80;99.90;;;;;;5012869;28;20454;-68
2022/08/25 09:56:04;;;;;;;9.20;8.17;;;26.00;99.90;;;;;;5013519;28;20904;-68
2022/08/25 09:58:30;;;;;;;7.90;7.20;;;26.00;99.90;;;;;;5012353;28;20409;-68
2022/08/25 10:01:20;;;;;;;8.53;7.67;;;25.70;99.90;;;;;;5012976;28;20975;-67
2022/08/25 10:04:06;;;;;;;8.80;7.97;;;25.50;99.90;;;;;;5012594;28;20456;-67
2022/08/25 10:06:46;;;;;;;14.03;8.93;;;25.40;99.90;;;;;;5012577;28;20998;-67
2022/08/25 10:09:33;;;;;;;11.60;8.80;;;25.50;99.90;;;;;;5012174;28;20780;-68
2022/08/25 10:12:01;;;;;;;8.07;7.07;;;25.70;99.90;;;;;;5012215;28;20423;-68
2022/08/25 10:14:30;;;;;;;14.93;8.50;;;25.90;99.90;;;;;;5012551;28;20947;-67
2022/08/25 10:17:34;;;;;;;18.73;8.67;;;25.90;99.90;;;;;;5012549;28;20404;-67
2022/08/25 10:20:08;;;;;;;8.37;7.13;;;26.10;99.90;;;;;;4970870;28;20468;-66
2022/08/25 10:22:35;;;;;;;9.17;7.87;;;26.00;99.90;;;;;;4970294;28;20519;-65
2022/08/25 10:25:03;;;;;;;10.50;7.40;;;26.10;99.90;;;;;;4970880;28;20405;-65
2022/08/25 10:27:46;;;;;;;9.83;8.93;;;26.00;99.90;;;;;;4970748;28;20452;-66
2022/08/25 10:30:33;;;;;;;8.07;7.37;;;25.90;99.90;;;;;;4970961;28;20798;-66
2022/08/25 10:33:22;;;;;;;9.73;8.37;;;26.10;99.90;;;;;;4970769;28;20487;-66
2022/08/25 10:36:17;;;;;;;15.70;8.30;;;26.30;99.90;;;;;;4960214;28;20459;-67
2022/08/25 10:38:59;;;;;;;21.97;9.40;;;27.00;99.90;;;;;;4969978;28;20432;-67
2022/08/25 10:42:01;;;;;;;6.87;6.20;;;26.50;99.90;;;;;;4970314;28;20495;-67
2022/08/25 10:47:48;;;;;;;8.47;7.50;;;27.00;99.90;;;;;;4970102;28;20459;-67
2022/08/25 10:50:22;;;;;;;8.93;7.60;;;27.20;99.90;;;;;;4981758;28;20407;-67
2022/08/25 10:53:17;;;;;;;8.43;6.83;;;27.10;99.90;;;;;;5012094;28;20442;-67
2022/08/25 10:55:52;;;;;;;8.67;7.83;;;27.00;99.90;;;;;;5012282;28;20407;-66
2022/08/25 10:58:31;;;;;;;24.90;7.53;;;27.00;99.90;;;;;;5011917;28;20394;-67
2022/08/25 11:01:30;;;;;;;24.63;10.00;;;26.90;99.90;;;;;;5011772;28;20469;-67
2022/08/25 11:04:07;;;;;;;7.33;6.63;;;26.80;99.90;;;;;;5012000;28;20402;-67
2022/08/25 11:06:50;;;;;;;8.50;7.70;;;26.50;99.90;;;;;;5012011;28;20433;-67
2022/08/25 11:09:24;;;;;;;17.13;8.17;;;26.50;99.90;;;;;;5011389;28;20770;-67
2022/08/25 11:11:59;;;;;;;9.37;7.53;;;26.60;99.90;;;;;;5011787;28;20424;-67
2022/08/25 11:14:34;;;;;;;20.03;9.00;;;26.60;99.90;;;;;;5011779;28;20394;-67
2022/08/25 11:17:10;;;;;;;26.07;9.20;;;26.70;99.90;;;;;;5011506;28;20405;-67
2022/08/25 11:19:47;;;;;;;13.03;7.77;;;26.90;99.90;;;;;;5012348;28;20522;-66
2022/08/25 11:22:39;;;;;;;13.30;7.10;;;26.60;99.90;;;;;;5011469;28;20489;-67
2022/08/25 11:25:17;;;;;;;10.30;7.20;;;26.50;99.90;;;;;;5011751;28;20399;-67
2022/08/25 11:28:03;;;;;;;8.57;6.27;;;26.50;99.90;;;;;;5011111;28;20461;-67
2022/08/25 11:30:29;;;;;;;11.33;7.30;;;26.60;99.90;;;;;;5011009;28;21017;-67
2022/08/25 11:32:55;;;;;;;8.63;7.43;;;26.50;99.90;;;;;;5011577;28;20427;-67
2022/08/25 11:35:40;;;;;;;14.70;7.40;;;26.70;99.90;;;;;;5011165;28;20191;-67
2022/08/25 11:38:12;;;;;;;11.37;7.03;;;26.70;99.90;;;;;;5011202;28;20438;-67
2022/08/25 11:41:02;;;;;;;11.77;6.90;;;26.80;99.90;;;;;;5011263;28;20455;-68
2022/08/25 11:43:51;;;;;;;6.70;6.10;;;26.90;99.90;;;;;;5011163;28;20423;-67
2022/08/25 11:46:23;;;;;;;7.17;6.47;;;26.90;99.90;;;;;;5011178;28;20417;-66
2022/08/25 11:49:06;;;;;;;7.67;6.00;;;26.80;99.90;;;;;;5010716;28;20403;-67
2022/08/25 11:51:40;;;;;;;13.80;6.60;;;26.80;99.90;;;;;;5010700;28;20654;-66
2022/08/25 11:54:16;;;;;;;7.10;6.27;;;27.10;99.90;;;;;;5010953;28;21244;-67
2022/08/25 11:56:49;;;;;;;9.27;7.10;;;27.00;99.90;;;;;;5010987;28;20497;-66
2022/08/25 11:59:56;;;;;;;13.07;6.83;;;26.90;99.90;;;;;;5011448;28;20459;-66
2022/08/25 12:02:43;;;;;;;8.93;7.17;;;27.00;99.90;;;;;;5011043;28;20434;-66
2022/08/25 12:05:18;;;;;;;7.77;6.90;;;26.70;99.90;;;;;;5014603;28;20398;-66
2022/08/25 12:07:47;;;;;;;10.30;6.13;;;26.50;99.90;;;;;;5018753;28;20414;-67
2022/08/25 12:10:15;;;;;;;7.10;6.50;;;26.70;99.90;;;;;;5019898;28;20441;-67
2022/08/25 12:12:43;;;;;;;6.57;5.90;;;26.70;99.90;;;;;;5011692;28;20493;-67
2022/08/25 12:15:30;;;;;;;8.80;5.80;;;26.70;99.90;;;;;;5010821;28;20429;-67
2022/08/25 12:18:39;;;;;;;7.33;6.53;;;26.90;99.90;;;;;;5010547;28;20965;-66
2022/08/25 12:21:04;;;;;;;7.80;6.40;;;27.10;99.90;;;;;;5010750;28;20463;-66
2022/08/25 12:23:41;;;;;;;10.30;6.80;;;27.00;99.90;;;;;;5014506;28;20505;-67
2022/08/25 12:26:31;;;;;;;8.80;7.23;;;27.10;99.90;;;;;;5014858;28;20262;-66
2022/08/25 12:29:21;;;;;;;7.93;6.80;;;27.20;99.90;;;;;;5014286;28;20399;-67
2022/08/25 12:31:56;;;;;;;7.50;6.10;;;27.00;99.90;;;;;;5014701;28;20478;-67
2022/08/25 12:34:46;;;;;;;7.83;7.10;;;27.10;99.90;;;;;;5014652;28;20431;-67
2022/08/25 12:37:19;;;;;;;6.60;6.00;;;27.10;99.90;;;;;;5014375;28;20443;-67
2022/08/25 12:39:47;;;;;;;7.30;6.27;;;27.20;99.90;;;;;;5014255;28;20474;-67
2022/08/25 12:42:37;;;;;;;5.67;5.17;;;27.20;99.90;;;;;;5014299;28;20957;-67
2022/08/25 12:45:15;;;;;;;8.03;5.63;;;27.30;99.90;;;;;;5014391;28;20433;-67
2022/08/25 12:47:46;;;;;;;7.17;6.10;;;27.20;99.90;;;;;;5013792;28;20407;-67
2022/08/25 12:50:46;;;;;;;7.30;6.70;;;27.40;99.90;;;;;;5013742;28;20403;-67
2022/08/25 12:53:30;;;;;;;7.07;6.47;;;27.40;99.90;;;;;;5014029;28;21196;-67
2022/08/25 12:56:07;;;;;;;7.20;6.30;;;27.20;99.90;;;;;;5013874;28;20399;-66
2022/08/25 12:58:55;;;;;;;7.17;6.50;;;27.10;99.90;;;;;;5013384;28;20394;-67
2022/08/25 13:01:43;;;;;;;8.70;6.10;;;27.10;99.90;;;;;;5013859;28;20857;-68
2022/08/25 13:04:22;;;;;;;6.17;5.67;;;27.10;99.90;;;;;;5013791;28;20963;-68
2022/08/25 13:07:03;;;;;;;8.20;6.13;;;27.10;99.90;;;;;;5013728;28;20753;-67
2022/08/25 13:09:50;;;;;;;10.80;6.60;;;27.10;99.90;;;;;;5013559;28;20454;-65
2022/08/25 13:12:34;;;;;;;17.67;6.60;;;27.20;99.90;;;;;;5013409;28;20423;-67
2022/08/25 13:15:00;;;;;;;7.07;5.43;;;27.10;99.90;;;;;;5013793;28;20399;-67
2022/08/25 13:17:30;;;;;;;6.53;5.93;;;27.20;99.90;;;;;;5013228;28;20403;-67